Time;durP1;ratioP1;P1;durP2;ratioP2;P2;SDS_P1;SDS_P2;PMS_P1;PMS_P2;Temp;Humidity;BMP_temperature;BMP_pressure;BME280_temperature;BME280_humidity;BME280_pressure;Samples;Min_cycle;Max_cycle;Signal;HPM_P1;HPM_P2
2021/04/14 00:02:00;;;;;;;5.63;4.30;;;0.40;58.40;;;;;;5015719;28;20482;-79
2021/04/14 00:04:27;;;;;;;3.97;3.60;;;0.30;58.50;;;;;;5015587;28;20448;-78
2021/04/14 00:06:54;;;;;;;5.87;4.10;;;0.30;59.30;;;;;;5018796;28;20459;-78
2021/04/14 00:09:21;;;;;;;7.40;5.40;;;0.40;59.80;;;;;;5023251;28;20538;-79
2021/04/14 00:11:48;;;;;;;4.20;3.80;;;0.40;60.20;;;;;;5027029;28;20539;-78
2021/04/14 00:14:14;;;;;;;5.07;4.57;;;0.30;60.60;;;;;;5023009;28;20526;-82
2021/04/14 00:16:40;;;;;;;8.43;4.50;;;0.20;61.40;;;;;;5027418;28;20537;-77
2021/04/14 00:19:07;;;;;;;6.63;4.40;;;0.10;62.00;;;;;;5021429;28;20518;-80
2021/04/14 00:21:34;;;;;;;5.07;4.57;;;0.10;62.90;;;;;;5019955;28;20474;-79
2021/04/14 00:24:00;;;;;;;4.60;3.90;;;0.10;64.00;;;;;;5018848;28;20553;-77
2021/04/14 00:26:28;;;;;;;6.17;4.37;;;-0.10;64.50;;;;;;5020609;28;20440;-78
2021/04/14 00:28:55;;;;;;;6.23;4.43;;;-0.10;65.90;;;;;;5021308;28;20518;-78
2021/04/14 00:31:35;;;;;;;7.03;4.50;;;-0.20;66.40;;;;;;5026255;28;20447;-77
2021/04/14 00:34:02;;;;;;;4.67;4.13;;;-0.10;67.60;;;;;;5019786;28;20435;-77
2021/04/14 00:36:28;;;;;;;7.17;4.83;;;-0.10;67.70;;;;;;5021075;28;20562;-77
2021/04/14 00:38:55;;;;;;;6.40;4.70;;;-0.10;69.00;;;;;;5029046;28;20553;-77
2021/04/14 00:41:22;;;;;;;14.17;9.23;;;-0.10;69.10;;;;;;5026720;28;20483;-77
2021/04/14 00:43:49;;;;;;;7.53;6.20;;;-0.10;69.50;;;;;;5017375;28;21045;-78
2021/04/14 00:46:15;;;;;;;11.37;8.53;;;-0.20;69.90;;;;;;5015932;28;20669;-79
2021/04/14 00:48:42;;;;;;;10.17;7.43;;;-0.20;70.30;;;;;;5021539;28;20452;-78
2021/04/14 00:51:10;;;;;;;11.77;8.60;;;-0.30;70.40;;;;;;5013166;28;20835;-78
2021/04/14 00:53:36;;;;;;;10.33;7.93;;;-0.30;71.10;;;;;;5017847;28;20451;-80
2021/04/14 00:56:03;;;;;;;7.50;6.07;;;-0.40;71.40;;;;;;5017516;28;20918;-80
2021/04/14 00:58:29;;;;;;;14.73;8.67;;;-0.30;72.10;;;;;;5017424;28;20521;-78
2021/04/14 01:00:57;;;;;;;7.53;6.63;;;-0.40;72.10;;;;;;5022714;28;20454;-78
2021/04/14 01:03:27;;;;;;;9.43;5.50;;;-0.40;72.70;;;;;;5021501;28;20450;-81
2021/04/14 01:05:56;;;;;;;9.50;6.07;;;-0.60;73.50;;;;;;5019394;28;20463;-80
2021/04/14 01:08:23;;;;;;;8.97;5.90;;;-0.60;74.60;;;;;;5013513;28;20918;-82
2021/04/14 01:10:51;;;;;;;9.10;5.63;;;-0.60;75.10;;;;;;5015225;28;20474;-79
2021/04/14 01:13:17;;;;;;;6.30;4.23;;;-0.50;75.40;;;;;;5017995;28;20538;-79
2021/04/14 01:15:46;;;;;;;6.10;5.57;;;-0.50;75.00;;;;;;5014377;28;20538;-79
2021/04/14 01:18:16;;;;;;;11.80;5.97;;;-0.60;74.80;;;;;;5023609;28;20470;-78
2021/04/14 01:20:43;;;;;;;5.87;4.40;;;-0.60;75.80;;;;;;5013078;28;20495;-77
2021/04/14 01:23:11;;;;;;;6.80;4.77;;;-0.70;76.60;;;;;;5021633;28;20523;-78
2021/04/14 01:25:39;;;;;;;11.17;5.30;;;-0.70;76.80;;;;;;5014095;28;20475;-77
2021/04/14 01:28:08;;;;;;;8.50;4.83;;;-0.80;77.70;;;;;;5018972;28;20523;-77
2021/04/14 01:30:34;;;;;;;6.93;4.90;;;-0.80;79.20;;;;;;5013970;28;20444;-77
2021/04/14 01:33:01;;;;;;;5.53;4.70;;;-0.80;78.80;;;;;;5019320;28;20451;-78
2021/04/14 01:35:28;;;;;;;7.87;5.20;;;-0.70;78.10;;;;;;5017313;28;20551;-77
2021/04/14 01:37:55;;;;;;;6.07;4.73;;;-0.60;77.70;;;;;;5016703;28;20582;-77
2021/04/14 01:40:24;;;;;;;8.33;4.83;;;-0.90;78.60;;;;;;5017420;28;20551;-77
2021/04/14 01:42:51;;;;;;;6.23;4.23;;;-0.80;78.40;;;;;;5014332;28;20475;-77
2021/04/14 01:45:22;;;;;;;6.43;5.13;;;-0.70;78.40;;;;;;5017424;28;20443;-77
2021/04/14 01:47:48;;;;;;;9.47;7.10;;;-0.70;78.00;;;;;;5019022;28;20450;-78
2021/04/14 01:50:14;;;;;;;8.60;6.90;;;-0.90;79.40;;;;;;5014225;28;20554;-77
2021/04/14 01:52:41;;;;;;;7.90;6.20;;;-0.80;79.30;;;;;;5012622;28;20467;-78
2021/04/14 01:55:09;;;;;;;7.17;5.30;;;-0.90;78.40;;;;;;5019764;28;20451;-78
2021/04/14 01:57:36;;;;;;;9.40;6.10;;;-0.90;79.50;;;;;;5015193;28;20450;-77
2021/04/14 02:00:08;;;;;;;6.33;5.73;;;-1.00;80.00;;;;;;5017318;28;20479;-78
2021/04/14 02:02:35;;;;;;;6.33;4.80;;;-1.10;80.60;;;;;;5015197;28;20546;-77
2021/04/14 02:05:01;;;;;;;7.83;5.90;;;-1.20;80.90;;;;;;5016668;28;20463;-77
2021/04/14 02:07:27;;;;;;;10.07;5.73;;;-1.20;81.80;;;;;;5010901;28;20464;-79
2021/04/14 02:09:54;;;;;;;5.10;4.53;;;-1.20;82.00;;;;;;5019802;28;20447;-78
2021/04/14 02:12:20;;;;;;;5.80;4.43;;;-1.20;81.80;;;;;;5013443;28;20451;-77
2021/04/14 02:14:47;;;;;;;7.90;5.70;;;-1.20;81.90;;;;;;5015731;28;20455;-78
2021/04/14 02:17:13;;;;;;;7.90;5.83;;;-1.10;82.50;;;;;;5009149;28;20467;-77
2021/04/14 02:19:40;;;;;;;6.27;5.37;;;-1.00;82.00;;;;;;5014138;28;20463;-77
2021/04/14 02:22:06;;;;;;;5.50;5.00;;;-1.10;81.70;;;;;;5012895;28;20575;-77
2021/04/14 02:24:32;;;;;;;7.60;5.17;;;-1.10;82.20;;;;;;5013959;28;20451;-85
2021/04/14 02:26:58;;;;;;;11.60;5.47;;;-1.20;83.10;;;;;;5018647;28;20550;-77
2021/04/14 02:29:25;;;;;;;6.13;5.00;;;-1.20;84.50;;;;;;5011631;28;20488;-82
2021/04/14 02:31:52;;;;;;;7.67;5.30;;;-1.40;85.10;;;;;;5014519;28;20544;-78
2021/04/14 02:34:18;;;;;;;5.53;4.97;;;-1.30;85.10;;;;;;5016415;28;20444;-82
2021/04/14 02:36:45;;;;;;;8.90;6.17;;;-1.20;85.00;;;;;;5020102;28;20630;-77
2021/04/14 02:39:12;;;;;;;7.80;5.33;;;-1.10;84.00;;;;;;5010604;28;20830;-77
2021/04/14 02:41:40;;;;;;;7.20;5.60;;;-1.20;83.50;;;;;;5013943;28;20442;-80
2021/04/14 02:44:07;;;;;;;7.67;5.80;;;-1.10;84.40;;;;;;5018732;28;20467;-77
2021/04/14 02:46:33;;;;;;;7.90;5.83;;;-1.20;84.00;;;;;;5017731;28;20452;-77
2021/04/14 02:49:00;;;;;;;9.13;6.53;;;-1.20;84.30;;;;;;5012606;28;21138;-77
2021/04/14 02:51:26;;;;;;;8.00;6.03;;;-1.20;84.70;;;;;;5020153;28;20440;-77
2021/04/14 02:53:53;;;;;;;9.27;5.53;;;-1.20;84.50;;;;;;5011523;28;20452;-77
2021/04/14 02:56:21;;;;;;;7.57;6.13;;;-1.20;85.30;;;;;;5015072;28;20474;-77
2021/04/14 02:58:47;;;;;;;6.40;5.60;;;-1.30;85.20;;;;;;5015618;28;20467;-79
2021/04/14 03:01:14;;;;;;;10.53;6.23;;;-1.30;86.40;;;;;;5011434;28;20472;-77
2021/04/14 03:03:41;;;;;;;8.03;5.80;;;-1.20;88.00;;;;;;5013536;28;20455;-77
2021/04/14 03:06:08;;;;;;;10.47;5.80;;;-1.30;86.30;;;;;;5015663;28;20541;-77
2021/04/14 03:08:35;;;;;;;7.77;5.70;;;-1.30;87.90;;;;;;5015439;28;20455;-80
2021/04/14 03:11:01;;;;;;;8.37;6.03;;;-1.30;88.80;;;;;;5020219;28;20773;-77
2021/04/14 03:13:28;;;;;;;7.83;5.40;;;-1.30;87.80;;;;;;5027026;28;20539;-79
2021/04/14 03:15:54;;;;;;;7.20;5.30;;;-1.40;88.10;;;;;;5016000;28;20534;-78
2021/04/14 03:18:20;;;;;;;8.20;6.10;;;-1.40;88.80;;;;;;5022342;28;20447;-77
2021/04/14 03:20:47;;;;;;;7.03;4.90;;;-1.60;90.10;;;;;;5019564;28;20549;-78
2021/04/14 03:23:16;;;;;;;8.40;5.80;;;-1.60;90.60;;;;;;5021051;28;20475;-77
2021/04/14 03:25:43;;;;;;;6.67;5.97;;;-1.70;91.10;;;;;;5015148;28;20455;-76
2021/04/14 03:28:12;;;;;;;6.47;5.77;;;-1.70;92.10;;;;;;5013587;28;20517;-78
2021/04/14 03:30:39;;;;;;;12.93;6.63;;;-1.70;92.10;;;;;;5018430;28;20478;-78
2021/04/14 03:33:06;;;;;;;8.67;5.63;;;-1.70;91.90;;;;;;5012121;28;20969;-82
2021/04/14 03:35:32;;;;;;;11.90;6.60;;;-1.80;91.90;;;;;;5016053;28;20543;-77
2021/04/14 03:37:59;;;;;;;12.63;7.53;;;-1.80;92.40;;;;;;5011284;28;20487;-78
2021/04/14 03:40:27;;;;;;;18.53;11.07;;;-1.80;92.30;;;;;;5023500;28;20475;-77
2021/04/14 03:42:54;;;;;;;20.60;10.50;;;-1.90;91.50;;;;;;5014848;28;20451;-85
2021/04/14 03:45:30;;;;;;;20.63;11.40;;;-1.90;92.10;;;;;;5014115;28;20452;-77
2021/04/14 03:47:57;;;;;;;23.43;11.00;;;-1.80;92.50;;;;;;5011511;28;20458;-77
2021/04/14 03:50:24;;;;;;;17.60;8.93;;;-1.80;91.40;;;;;;5032679;28;20481;-79
2021/04/14 03:52:51;;;;;;;13.10;8.57;;;-1.90;91.60;;;;;;5033400;28;20460;-84
2021/04/14 03:55:21;;;;;;;13.90;8.83;;;-2.00;91.80;;;;;;5028088;28;20476;-80
2021/04/14 03:57:48;;;;;;;16.10;9.40;;;-2.10;92.70;;;;;;5017878;28;20825;-78
2021/04/14 04:00:17;;;;;;;12.07;8.87;;;-2.10;92.40;;;;;;5012797;28;20962;-77
2021/04/14 04:02:43;;;;;;;11.57;8.30;;;-2.10;93.30;;;;;;5011133;28;20960;-77
2021/04/14 04:05:11;;;;;;;10.93;8.40;;;-1.90;93.80;;;;;;5012868;28;20482;-77
2021/04/14 04:07:37;;;;;;;12.37;7.37;;;-2.00;91.30;;;;;;5011389;28;20543;-77
2021/04/14 04:10:06;;;;;;;12.97;8.33;;;-2.00;91.90;;;;;;5011456;28;20559;-76
2021/04/14 04:12:33;;;;;;;11.83;8.20;;;-2.00;92.40;;;;;;5015336;28;20891;-80
2021/04/14 04:15:00;;;;;;;12.10;7.80;;;-2.00;92.20;;;;;;5014444;28;20448;-82
2021/04/14 04:17:27;;;;;;;14.13;7.87;;;-1.90;93.00;;;;;;5010808;28;21018;-79
2021/04/14 04:19:53;;;;;;;8.73;7.00;;;-2.00;91.70;;;;;;5012173;28;20502;-76
2021/04/14 04:22:20;;;;;;;15.20;8.40;;;-2.10;92.10;;;;;;5011602;28;21149;-76
2021/04/14 04:24:48;;;;;;;12.40;8.10;;;-2.10;93.20;;;;;;5013819;28;20444;-77
2021/04/14 04:27:15;;;;;;;12.10;7.40;;;-2.20;94.00;;;;;;5019872;28;20778;-76
2021/04/14 04:29:41;;;;;;;9.40;7.00;;;-2.20;94.30;;;;;;5012118;28;20535;-78
2021/04/14 04:32:09;;;;;;;10.93;7.37;;;-2.20;94.80;;;;;;5018119;28;20970;-79
2021/04/14 04:34:36;;;;;;;8.40;6.70;;;-2.00;96.10;;;;;;5018205;28;20678;-78
2021/04/14 04:37:02;;;;;;;9.67;6.33;;;-1.90;94.70;;;;;;5017702;28;20579;-77
2021/04/14 04:39:29;;;;;;;10.47;6.27;;;-1.80;93.40;;;;;;5020390;28;20546;-79
2021/04/14 04:41:55;;;;;;;8.00;6.00;;;-1.90;92.50;;;;;;5016209;28;20545;-77
2021/04/14 04:44:22;;;;;;;8.27;6.50;;;-1.90;93.20;;;;;;5021186;28;20443;-83
2021/04/14 04:46:49;;;;;;;9.63;6.50;;;-1.80;93.00;;;;;;5030864;28;20508;-77
2021/04/14 04:49:16;;;;;;;8.50;6.20;;;-1.70;92.80;;;;;;5013735;28;20451;-83
2021/04/14 04:51:43;;;;;;;7.30;6.17;;;-1.70;91.70;;;;;;5016478;28;20805;-77
2021/04/14 04:54:10;;;;;;;8.37;6.00;;;-1.70;91.20;;;;;;5017459;28;20462;-79
2021/04/14 04:56:36;;;;;;;11.30;6.53;;;-1.60;90.90;;;;;;5024824;28;20465;-78
2021/04/14 04:59:03;;;;;;;6.90;6.20;;;-1.50;90.30;;;;;;5014438;28;20495;-77
2021/04/14 05:01:29;;;;;;;8.07;6.37;;;-0.80;86.90;;;;;;5021502;28;20559;-81
2021/04/14 05:03:56;;;;;;;8.67;6.53;;;-0.70;81.20;;;;;;5016785;28;20855;-77
2021/04/14 05:06:23;;;;;;;11.10;6.80;;;0.10;81.10;;;;;;5021870;28;20794;-81
2021/04/14 05:08:49;;;;;;;12.37;5.67;;;0.60;77.00;;;;;;5022947;28;20444;-77
2021/04/14 05:11:16;;;;;;;7.27;5.53;;;0.50;73.50;;;;;;5016821;28;20447;-77
2021/04/14 05:13:42;;;;;;;7.20;5.80;;;0.50;73.10;;;;;;5025276;28;20537;-77
2021/04/14 05:16:09;;;;;;;12.63;6.57;;;0.50;73.00;;;;;;5016486;28;20523;-79
2021/04/14 05:18:35;;;;;;;7.73;6.10;;;1.00;73.70;;;;;;5014245;28;20471;-78
2021/04/14 05:21:03;;;;;;;12.63;9.03;;;1.00;72.20;;;;;;5012506;28;20455;-77
2021/04/14 05:23:30;;;;;;;14.33;9.27;;;1.50;70.80;;;;;;5023253;28;20530;-80
2021/04/14 05:25:56;;;;;;;16.53;9.73;;;1.60;71.00;;;;;;5017038;28;20456;-77
2021/04/14 05:28:24;;;;;;;12.27;8.93;;;1.80;70.50;;;;;;5010955;28;20466;-79
2021/04/14 05:30:51;;;;;;;8.67;6.60;;;0.90;69.70;;;;;;5018850;28;21064;-79
2021/04/14 05:33:18;;;;;;;8.50;6.60;;;0.90;71.80;;;;;;5012221;28;20557;-78
2021/04/14 05:35:45;;;;;;;11.90;6.73;;;0.90;72.30;;;;;;5015583;28;20459;-77
2021/04/14 05:38:12;;;;;;;11.70;8.20;;;1.00;72.60;;;;;;5027288;28;20537;-78
2021/04/14 05:40:40;;;;;;;10.63;8.50;;;0.50;73.10;;;;;;5024509;28;20486;-77
2021/04/14 05:43:16;;;;;;;8.90;6.60;;;0.50;74.50;;;;;;5021953;28;20489;-78
2021/04/14 05:45:45;;;;;;;10.30;6.30;;;0.20;76.30;;;;;;5017325;28;20459;-76
2021/04/14 05:48:11;;;;;;;11.13;7.73;;;0.20;76.50;;;;;;5010901;28;20460;-75
2021/04/14 05:50:38;;;;;;;8.13;6.50;;;0.20;76.10;;;;;;5015643;28;20447;-85
2021/04/14 05:53:04;;;;;;;10.80;7.47;;;0.10;76.30;;;;;;5025481;28;20455;-77
2021/04/14 05:55:31;;;;;;;12.23;7.40;;;0.10;76.50;;;;;;5014485;28;20463;-75
2021/04/14 05:57:58;;;;;;;11.70;7.20;;;0.30;75.80;;;;;;5016199;28;20476;-81
2021/04/14 06:00:25;;;;;;;8.37;6.33;;;0.40;75.50;;;;;;5015282;28;20583;-79
2021/04/14 06:02:51;;;;;;;11.15;7.75;;;0.40;75.40;;;;;;5023637;28;20442;-78
2021/04/14 06:05:20;;;;;;;9.70;7.20;;;0.50;75.80;;;;;;5017063;28;20204;-78
2021/04/14 06:07:46;;;;;;;13.43;7.60;;;0.50;75.10;;;;;;5022794;28;20535;-79
2021/04/14 06:10:14;;;;;;;9.63;7.10;;;0.50;75.20;;;;;;5024111;28;20462;-80
2021/04/14 06:12:41;;;;;;;9.47;6.10;;;0.50;75.10;;;;;;5023895;28;20471;-80
2021/04/14 06:15:13;;;;;;;9.53;6.50;;;0.60;75.50;;;;;;5015455;28;20747;-79
2021/04/14 06:17:39;;;;;;;12.70;8.60;;;0.60;74.40;;;;;;5015146;28;20452;-78
2021/04/14 06:20:07;;;;;;;8.10;6.90;;;0.70;74.60;;;;;;5019022;28;20476;-78
2021/04/14 06:22:36;;;;;;;11.13;7.60;;;0.80;75.00;;;;;;5021213;28;21065;-78
2021/04/14 06:25:04;;;;;;;8.53;6.67;;;0.70;74.90;;;;;;5025016;28;20465;-78
2021/04/14 06:27:35;;;;;;;7.77;6.60;;;0.70;74.60;;;;;;5019875;28;20571;-79
2021/04/14 06:30:02;;;;;;;10.00;7.27;;;0.70;75.30;;;;;;5032961;28;20447;-82
2021/04/14 06:32:29;;;;;;;15.30;7.43;;;0.90;74.80;;;;;;5027998;28;20448;-79
2021/04/14 06:34:56;;;;;;;11.93;7.20;;;0.90;74.80;;;;;;5016249;28;20463;-78
2021/04/14 06:37:22;;;;;;;9.83;6.87;;;0.90;74.00;;;;;;5032353;28;20514;-89
2021/04/14 06:40:02;;;;;;;8.57;6.47;;;0.90;73.60;;;;;;5020332;28;20984;-78
2021/04/14 06:42:47;;;;;;;8.13;7.30;;;0.90;74.90;;;;;;5018021;28;20456;-78
2021/04/14 06:45:20;;;;;;;9.97;7.20;;;0.90;75.90;;;;;;5028548;28;20446;-79
2021/04/14 06:48:17;;;;;;;14.40;7.33;;;1.10;74.40;;;;;;5034118;28;20455;-87
2021/04/14 06:50:49;;;;;;;14.20;6.83;;;1.40;73.80;;;;;;5046434;28;20500;-80
2021/04/14 06:53:35;;;;;;;9.20;7.20;;;1.30;72.90;;;;;;5030174;28;20452;-78
2021/04/14 06:56:05;;;;;;;10.83;7.07;;;1.50;72.30;;;;;;5027104;28;20451;-78
2021/04/14 06:58:37;;;;;;;16.77;7.20;;;1.50;72.60;;;;;;5027154;28;20467;-77
2021/04/14 07:01:08;;;;;;;15.57;6.60;;;1.60;72.60;;;;;;5028515;28;20455;-78
2021/04/14 07:03:44;;;;;;;8.77;6.63;;;1.80;71.60;;;;;;5032125;28;20869;-79
2021/04/14 07:06:13;;;;;;;8.87;6.50;;;2.10;71.00;;;;;;5037415;28;20446;-78
2021/04/14 07:08:46;;;;;;;10.07;6.17;;;2.30;70.50;;;;;;5028793;28;20464;-79
2021/04/14 07:11:19;;;;;;;9.90;6.20;;;2.50;69.50;;;;;;5032158;28;20478;-80
2021/04/14 07:13:48;;;;;;;7.63;6.67;;;2.50;69.10;;;;;;5025099;28;20455;-79
2021/04/14 07:16:33;;;;;;;6.00;5.43;;;2.60;69.40;;;;;;5027835;28;20486;-80
2021/04/14 07:19:06;;;;;;;12.47;7.30;;;2.60;68.80;;;;;;5026601;28;20480;-79
2021/04/14 07:21:41;;;;;;;11.07;6.07;;;2.70;68.80;;;;;;5030196;28;20468;-80
2021/04/14 07:24:17;;;;;;;6.83;5.80;;;2.80;68.60;;;;;;5027803;28;20518;-82
2021/04/14 07:26:50;;;;;;;8.10;6.05;;;3.00;68.50;;;;;;5025787;28;20461;-78
2021/04/14 07:29:29;;;;;;;10.38;6.93;;;3.00;68.30;;;;;;5021591;28;20439;-79
2021/04/14 07:32:02;;;;;;;11.90;6.17;;;3.20;68.20;;;;;;5023643;28;20220;-81
2021/04/14 07:34:41;;;;;;;5.27;4.30;;;3.30;67.30;;;;;;5010518;28;20484;-79
2021/04/14 07:37:11;;;;;;;7.50;5.13;;;3.20;66.40;;;;;;5017293;28;21085;-79
2021/04/14 07:39:43;;;;;;;6.73;5.00;;;3.50;66.60;;;;;;5022993;28;20872;-77
2021/04/14 07:42:21;;;;;;;8.97;5.30;;;3.50;66.40;;;;;;5019327;28;20452;-77
2021/04/14 07:45:05;;;;;;;8.67;5.07;;;3.90;65.80;;;;;;5019310;28;20490;-77
2021/04/14 07:47:32;;;;;;;5.87;5.03;;;3.80;65.50;;;;;;5021603;28;20455;-78
2021/04/14 07:49:59;;;;;;;6.10;5.30;;;4.00;65.20;;;;;;5023709;28;20495;-79
2021/04/14 07:52:28;;;;;;;6.30;5.70;;;4.00;65.00;;;;;;5017387;28;20454;-77
2021/04/14 07:54:56;;;;;;;8.60;5.70;;;4.00;65.00;;;;;;5026890;28;20452;-79
2021/04/14 07:57:30;;;;;;;8.10;5.73;;;4.20;65.10;;;;;;5014320;28;20271;-77
2021/04/14 08:00:08;;;;;;;8.40;5.15;;;4.50;64.50;;;;;;5015610;28;20968;-77
2021/04/14 08:02:34;;;;;;;6.97;5.57;;;4.60;64.10;;;;;;5015089;28;20271;-75
2021/04/14 08:05:19;;;;;;;6.37;4.90;;;4.10;63.80;;;;;;5021100;28;20452;-78
2021/04/14 08:07:46;;;;;;;6.87;5.37;;;4.70;64.10;;;;;;5020770;28;20532;-77
2021/04/14 08:10:16;;;;;;;13.17;5.73;;;4.80;63.30;;;;;;5022457;28;20448;-79
2021/04/14 08:12:54;;;;;;;7.20;5.17;;;4.70;63.00;;;;;;5020909;28;20829;-79
2021/04/14 08:15:28;;;;;;;7.77;5.83;;;5.10;62.90;;;;;;5004943;28;20444;-77
2021/04/14 08:18:13;;;;;;;4.80;4.27;;;5.30;62.00;;;;;;5023069;28;20446;-79
2021/04/14 08:20:41;;;;;;;6.97;4.87;;;5.30;61.40;;;;;;5018349;28;20471;-78
2021/04/14 08:23:27;;;;;;;5.70;3.73;;;5.10;61.00;;;;;;5022817;28;20463;-83
2021/04/14 08:25:55;;;;;;;7.27;5.37;;;5.20;59.90;;;;;;5018970;28;20799;-79
2021/04/14 08:28:32;;;;;;;5.20;4.60;;;5.10;59.70;;;;;;5034662;28;20886;-78
2021/04/14 08:31:07;;;;;;;6.85;4.60;;;5.40;60.00;;;;;;5015006;28;20458;-78
2021/04/14 08:33:34;;;;;;;6.83;4.90;;;5.50;59.40;;;;;;5025478;28;20522;-82
2021/04/14 08:36:15;;;;;;;7.00;4.10;;;5.30;58.60;;;;;;5032482;28;20479;-81
2021/04/14 08:38:42;;;;;;;6.53;3.70;;;5.50;58.90;;;;;;5032241;28;20455;-79
2021/04/14 08:41:20;;;;;;;7.10;3.83;;;5.60;57.90;;;;;;5023527;28;20545;-82
2021/04/14 08:43:52;;;;;;;7.60;4.87;;;5.70;57.70;;;;;;5045080;28;20486;-79
2021/04/14 08:46:29;;;;;;;13.93;4.70;;;5.70;57.60;;;;;;5035351;28;20837;-80
2021/04/14 08:49:00;;;;;;;6.30;3.90;;;6.00;56.60;;;;;;5035366;28;20205;-79
2021/04/14 08:51:29;;;;;;;8.50;4.30;;;5.90;56.90;;;;;;5030553;28;20774;-79
2021/04/14 08:53:58;;;;;;;14.47;3.97;;;5.70;55.60;;;;;;5040887;28;20480;-80
2021/04/14 08:56:26;;;;;;;4.23;3.80;;;5.80;56.20;;;;;;5034283;28;20483;-79
2021/04/14 08:58:54;;;;;;;6.30;3.90;;;5.90;55.40;;;;;;5030519;28;20451;-80
2021/04/14 09:01:22;;;;;;;3.97;3.33;;;6.30;54.70;;;;;;5023310;28;20443;-78
2021/04/14 09:03:49;;;;;;;4.23;3.00;;;6.40;54.30;;;;;;5024892;28;20204;-76
2021/04/14 09:06:19;;;;;;;6.13;3.30;;;6.50;53.50;;;;;;5021977;28;20449;-78
2021/04/14 09:08:49;;;;;;;3.30;2.97;;;6.70;53.00;;;;;;5020498;28;20483;-78
2021/04/14 09:11:25;;;;;;;4.50;2.40;;;6.30;51.40;;;;;;5023041;28;20549;-79
2021/04/14 09:14:03;;;;;;;8.00;3.20;;;6.30;51.60;;;;;;5018332;28;20470;-77
2021/04/14 09:16:38;;;;;;;6.07;3.10;;;6.50;50.40;;;;;;5021831;28;20475;-77
2021/04/14 09:19:13;;;;;;;6.87;3.40;;;6.00;50.90;;;;;;5018287;28;20465;-79
2021/04/14 09:21:46;;;;;;;6.80;3.97;;;6.40;52.30;;;;;;5017934;28;20444;-77
2021/04/14 09:24:42;;;;;;;7.40;3.20;;;6.70;52.50;;;;;;5021172;28;20454;-80
2021/04/14 09:27:23;;;;;;;3.23;2.53;;;6.60;50.40;;;;;;5010606;28;20220;-78
2021/04/14 09:30:08;;;;;;;4.60;2.80;;;6.50;49.70;;;;;;5030417;28;20840;-79
2021/04/14 09:32:50;;;;;;;5.03;2.00;;;6.70;49.20;;;;;;5034409;28;20208;-78
2021/04/14 09:35:22;;;;;;;3.20;2.30;;;7.20;48.00;;;;;;5029455;28;20470;-79
2021/04/14 09:37:48;;;;;;;8.00;2.27;;;7.50;47.90;;;;;;5018452;28;20227;-80
2021/04/14 09:40:30;;;;;;;2.67;2.17;;;7.70;47.00;;;;;;5027593;28;20971;-79
2021/04/14 09:42:57;;;;;;;4.13;2.40;;;7.80;46.70;;;;;;5025730;28;20468;-81
2021/04/14 09:45:36;;;;;;;2.90;1.60;;;7.30;47.20;;;;;;5025883;28;20452;-80
2021/04/14 09:48:23;;;;;;;4.40;1.70;;;7.40;44.80;;;;;;5045496;28;20453;-83
2021/04/14 09:50:52;;;;;;;4.22;1.92;;;7.30;43.60;;;;;;5025244;28;20483;-84
2021/04/14 09:53:27;;;;;;;2.13;1.60;;;6.80;43.00;;;;;;5033591;28;20213;-85
2021/04/14 09:56:03;;;;;;;2.20;1.67;;;7.20;43.50;;;;;;5026832;28;21096;-86
2021/04/14 09:58:39;;;;;;;5.30;2.23;;;7.40;43.90;;;;;;5020480;28;20448;-84
2021/04/14 10:01:13;;;;;;;3.83;2.07;;;8.00;44.20;;;;;;5026803;28;20479;-85
2021/04/14 10:03:43;;;;;;;3.40;2.20;;;6.90;44.80;;;;;;5022037;28;20459;-88
2021/04/14 10:06:13;;;;;;;3.80;2.20;;;7.00;44.60;;;;;;5026859;28;20478;-85
2021/04/14 10:08:42;;;;;;;4.72;2.10;;;7.00;44.00;;;;;;5020431;28;20451;-79
2021/04/14 10:11:22;;;;;;;2.73;2.50;;;7.60;44.00;;;;;;5021754;28;20220;-79
2021/04/14 10:13:51;;;;;;;2.47;2.23;;;6.80;43.60;;;;;;5033320;28;20534;-84
2021/04/14 10:16:22;;;;;;;6.40;3.10;;;7.20;45.00;;;;;;5031446;28;20451;-83
2021/04/14 10:19:00;;;;;;;5.50;3.10;;;7.20;46.10;;;;;;5041716;28;20446;-80
2021/04/14 10:21:28;;;;;;;6.70;2.93;;;7.00;46.20;;;;;;5029974;28;20270;-79
2021/04/14 10:23:56;;;;;;;5.75;2.50;;;7.00;46.60;;;;;;5037044;28;20451;-81
2021/04/14 10:26:26;;;;;;;6.53;3.03;;;7.10;46.10;;;;;;5025306;28;20624;-85
2021/04/14 10:28:53;;;;;;;4.32;2.15;;;7.10;44.90;;;;;;5031546;28;20532;-80
2021/04/14 10:31:23;;;;;;;3.93;2.00;;;7.00;43.90;;;;;;5025907;28;20229;-83
2021/04/14 10:33:52;;;;;;;3.53;2.07;;;7.00;43.40;;;;;;5024920;28;20467;-82
2021/04/14 10:36:29;;;;;;;2.40;2.20;;;7.00;43.30;;;;;;5014317;28;20538;-85
2021/04/14 10:58:16;;;;;;;4.90;2.50;;;7.90;44.40;;;;;;4999784;28;20437;-89
2021/04/14 11:03:46;;;;;;;4.17;2.10;;;7.60;41.90;;;;;;5038104;28;20451;-88
2021/04/14 11:06:16;;;;;;;3.43;2.10;;;7.30;41.80;;;;;;5042181;28;20467;-88
2021/04/14 11:08:44;;;;;;;2.10;1.80;;;7.40;41.40;;;;;;5012579;28;20446;-88
2021/04/14 11:11:24;;;;;;;3.80;2.43;;;7.60;41.90;;;;;;5042735;28;20526;-88
2021/04/14 11:13:55;;;;;;;3.63;1.93;;;7.50;42.80;;;;;;5038352;28;20471;-90
2021/04/14 11:17:00;;;;;;;1.90;1.10;;;7.60;42.50;;;;;;5027949;28;20452;-89
2021/04/14 11:23:17;;;;;;;1.33;1.00;;;6.80;41.50;;;;;;5043113;28;20504;-89
2021/04/14 11:29:28;;;;;;;2.03;0.93;;;7.10;40.50;;;;;;5037313;28;20465;-88
2021/04/14 11:32:40;;;;;;;1.90;1.20;;;7.40;40.40;;;;;;5036451;28;20454;-84
2021/04/14 11:35:20;;;;;;;2.10;0.97;;;7.80;39.70;;;;;;5041124;28;20204;-88
2021/04/14 11:38:03;;;;;;;2.35;1.27;;;7.60;39.60;;;;;;5031187;28;20469;-83
2021/04/14 11:40:44;;;;;;;2.40;1.70;;;8.30;39.20;;;;;;5024055;28;20221;-83
2021/04/14 11:43:42;;;;;;;3.13;1.67;;;8.30;38.90;;;;;;5023600;28;20466;-83
2021/04/14 11:46:32;;;;;;;2.03;1.53;;;8.10;38.80;;;;;;4962472;28;20506;-86
2021/04/14 11:49:03;;;;;;;2.87;1.63;;;9.10;39.70;;;;;;5026517;28;20464;-87
2021/04/14 11:51:34;;;;;;;4.40;1.70;;;8.60;39.60;;;;;;5022995;28;20466;-83
2021/04/14 11:54:04;;;;;;;2.77;1.87;;;7.90;38.90;;;;;;5030529;28;20502;-84
2021/04/14 11:56:44;;;;;;;1.77;1.60;;;8.50;39.50;;;;;;5034840;28;20799;-84
2021/04/14 11:59:26;;;;;;;4.00;1.77;;;9.00;38.40;;;;;;5019476;28;20196;-82
2021/04/14 12:01:56;;;;;;;2.43;1.70;;;8.50;38.00;;;;;;5026976;28;20464;-83
2021/04/14 12:04:23;;;;;;;4.33;1.80;;;9.60;39.60;;;;;;5024305;28;20467;-84
2021/04/14 12:06:58;;;;;;;3.00;1.83;;;10.00;38.10;;;;;;5027494;28;20458;-84
2021/04/14 12:09:34;;;;;;;3.00;1.70;;;10.50;38.70;;;;;;5023677;28;20459;-83
2021/04/14 12:12:03;;;;;;;2.23;1.77;;;9.40;37.60;;;;;;5043138;28;20458;-85
2021/04/14 12:14:33;;;;;;;1.97;1.77;;;9.30;36.70;;;;;;5035830;28;20452;-85
2021/04/14 12:17:01;;;;;;;1.87;1.77;;;9.60;37.80;;;;;;5035279;28;20451;-85
2021/04/14 12:19:31;;;;;;;2.53;1.97;;;9.70;37.20;;;;;;5028864;28;20494;-86
2021/04/14 12:22:07;;;;;;;3.40;2.10;;;9.70;37.40;;;;;;5010547;28;20470;-87
2021/04/14 12:24:36;;;;;;;2.00;1.70;;;9.60;37.00;;;;;;5007129;28;20447;-87
2021/04/14 12:27:03;;;;;;;4.90;1.70;;;9.10;35.70;;;;;;5033099;28;20518;-86
2021/04/14 12:29:31;;;;;;;1.83;1.67;;;8.90;36.10;;;;;;5027018;28;20486;-86
2021/04/14 12:31:58;;;;;;;2.37;1.90;;;9.00;36.70;;;;;;5035492;28;20486;-83
2021/04/14 12:34:24;;;;;;;2.50;2.30;;;9.80;37.00;;;;;;5040695;28;20525;-85
2021/04/14 12:36:51;;;;;;;2.40;1.57;;;8.90;36.00;;;;;;5037111;28;20463;-85
2021/04/14 12:39:20;;;;;;;2.63;1.50;;;9.20;37.10;;;;;;5034082;28;20669;-84
2021/04/14 12:41:57;;;;;;;3.47;2.20;;;8.90;36.90;;;;;;5011223;28;20463;-86
2021/04/14 12:44:28;;;;;;;3.23;2.00;;;8.60;37.20;;;;;;5028881;28;20458;-86
2021/04/14 12:46:56;;;;;;;3.80;2.17;;;8.00;36.40;;;;;;5025748;28;21074;-87
2021/04/14 12:49:23;;;;;;;3.70;1.87;;;8.20;36.90;;;;;;5013002;28;20482;-84
2021/04/14 12:51:56;;;;;;;9.60;2.57;;;8.20;37.90;;;;;;5032687;28;20454;-86
2021/04/14 12:54:30;;;;;;;2.30;1.73;;;8.60;38.50;;;;;;5028208;28;20541;-89
2021/04/14 12:57:02;;;;;;;3.63;2.10;;;8.20;38.70;;;;;;5023373;28;20431;-86
2021/04/14 12:59:32;;;;;;;1.70;1.60;;;8.00;39.50;;;;;;4998355;28;20213;-87
2021/04/14 13:02:05;;;;;;;5.40;2.00;;;7.70;39.50;;;;;;5031789;28;20540;-85
2021/04/14 13:04:41;;;;;;;2.07;1.77;;;8.00;40.10;;;;;;5035737;28;20521;-86
2021/04/14 13:11:15;;;;;;;2.27;2.07;;;8.00;39.90;;;;;;5033462;28;20448;-87
2021/04/14 13:13:49;;;;;;;2.70;1.73;;;7.50;39.50;;;;;;5023647;28;20810;-88
2021/04/14 13:16:31;;;;;;;6.57;1.90;;;7.70;40.00;;;;;;5020664;28;20914;-87
2021/04/14 13:19:02;;;;;;;3.53;1.83;;;7.70;39.30;;;;;;5025805;28;20463;-88
2021/04/14 13:24:26;;;;;;;4.30;1.73;;;8.20;39.10;;;;;;5037447;28;20474;-88
2021/04/14 13:39:00;;;;;;;4.13;2.37;;;8.70;37.10;;;;;;5026861;28;20494;-88
2021/04/14 13:41:42;;;;;;;2.60;1.50;;;8.80;37.40;;;;;;5045870;28;20447;-88
2021/04/14 13:44:28;;;;;;;3.27;1.43;;;8.40;37.60;;;;;;5028797;28;20542;-86
2021/04/14 13:47:01;;;;;;;1.60;1.10;;;8.50;37.70;;;;;;5019815;28;20515;-85
2021/04/14 13:49:38;;;;;;;5.97;1.63;;;8.90;37.20;;;;;;5035419;28;20464;-86
2021/04/14 13:52:13;;;;;;;6.67;2.00;;;8.90;36.70;;;;;;5044094;28;20453;-85
2021/04/14 13:54:58;;;;;;;2.38;1.30;;;8.80;36.00;;;;;;5023697;28;20462;-82
2021/04/14 13:57:30;;;;;;;1.37;1.00;;;8.50;34.10;;;;;;5044765;28;20257;-81